• Join FlightAware (Why Join?)
  • Login
  • US Flag 
09:10AM EDT


 

Airport Tracker/Info


-or-


 

Live Flight TrackerFlight Track Log ✈ N130LH ✈ 10-Aug-2013 ✈ SC5 - KIGM

Flight Track Log - Related Links

Times and Time Zones

All times are in EDT time to prevent confusion due to time zone crossing. See the N130LH flight status page for this flight to view local times or setup timezone preferences in your user account.

Time Position Orientation Groundspeed Altitude Reporting Facility
EDT Latitude Longitude Course Direction KTS MPH feet Rate Location/Type
04:25PM 32.8167 -116.9333 121° Southeast 166 191 4,000  Level Southern California TRACON
04:26PM 32.8006 -116.8683 106° East 160 184 4,000 240 Level Los Angeles Center
04:27PM 32.7950 -116.8200 98° East 152 175 4,600 540 Climbing Los Angeles Center
04:28PM 32.7906 -116.7731 96° East 146 168 5,300 720 Climbing Los Angeles Center
04:29PM 32.7836 -116.7189 99° East 140 161 6,300 780 Climbing Los Angeles Center
04:30PM -19.8977 -160.1833 121° Southeast  Level Estimated
04:30PM 32.7792 -116.6744 97° East 138 159 7,100  Level Los Angeles Center
04:31PM 32.7781 -116.6189 91° East 131 151 8,300 900 Climbing Los Angeles Center
04:32PM 32.8047 -116.5933 39° Northeast 126 145 9,000 480 Climbing Los Angeles Center
04:33PM 32.8339 -116.5631 41° Northeast 132 152 9,400 240 Climbing Los Angeles Center
04:34PM 32.8678 -116.5292 40° Northeast 149 171 9,500  Climbing Los Angeles Center
04:35PM 32.9042 -116.4931 40° Northeast 164 189 9,500  Level Los Angeles Center
04:36PM 32.9392 -116.4561 42° Northeast 164 189 9,600  Climbing Los Angeles Center
04:38PM 32.9800 -116.4264 31° Northeast 167 192 9,500 -60 Descending Los Angeles Center
04:39PM 33.0147 -116.3889 42° Northeast 169 194 9,500  Level Los Angeles Center
04:40PM 33.0583 -116.3436 41° Northeast 171 197 9,500  Level Los Angeles Center
04:41PM 33.1017 -116.3003 40° Northeast 170 196 9,500  Level Los Angeles Center
04:42PM 33.1375 -116.2625 41° Northeast 171 197 9,500  Level Los Angeles Center
04:43PM 33.1744 -116.2236 41° Northeast 173 199 9,500 -120 Level Los Angeles Center
04:44PM 33.2114 -116.1867 40° Northeast 175 201 9,300 -120 Descending Los Angeles Center
04:45PM 33.2475 -116.1492 41° Northeast 173 199 9,300  Level Los Angeles Center
04:46PM 33.2831 -116.1125 41° Northeast 171 197 9,300 60 Level Los Angeles Center
04:47PM 33.3247 -116.0692 41° Northeast 168 193 9,500 60 Climbing Los Angeles Center
04:48PM 33.3603 -116.0328 41° Northeast 167 192 9,500  Level Los Angeles Center
04:49PM 33.3967 -115.9950 41° Northeast 169 194 9,500  Level Los Angeles Center
04:50PM 33.4325 -115.9575 41° Northeast 171 197 9,500  Level Los Angeles Center
04:51PM 33.4758 -115.9125 41° Northeast 171 197 9,500  Level Los Angeles Center
04:52PM 33.5111 -115.8744 42° Northeast 172 198 9,500  Level Los Angeles Center
04:53PM 33.5550 -115.8297 40° Northeast 172 198 9,500  Level Los Angeles Center
04:54PM 33.5908 -115.7919 41° Northeast 172 198 9,500  Level Los Angeles Center
04:55PM 33.6272 -115.7544 41° Northeast 173 199 9,500  Level Los Angeles Center
04:57PM 33.6633 -115.7164 41° Northeast 173 199 9,500  Level Los Angeles Center
04:58PM 33.6989 -115.6772 42° Northeast 173 199 9,500  Level Los Angeles Center
04:59PM 33.7347 -115.6381 42° Northeast 174 200 9,500  Level Los Angeles Center
05:00PM 33.7850 -115.5831 42° Northeast 175 201 9,500 -60 Level Los Angeles Center
05:01PM 33.8211 -115.5436 42° Northeast 174 200 9,400  Descending Los Angeles Center
05:02PM 33.8567 -115.5042 43° Northeast 175 201 9,500  Climbing Los Angeles Center
05:03PM 33.8928 -115.4658 41° Northeast 174 200 9,500  Level Los Angeles Center
05:04PM 33.9286 -115.4264 42° Northeast 174 200 9,500  Level Los Angeles Center
05:05PM 33.9647 -115.3861 43° Northeast 175 201 9,500 -60 Level Los Angeles Center
05:06PM 34.0103 -115.3381 41° Northeast 179 206 9,400  Descending Los Angeles Center
05:07PM 34.0469 -115.2967 43° Northeast 180 207 9,500  Climbing Los Angeles Center
05:08PM 34.0833 -115.2572 42° Northeast 178 205 9,400  Descending Los Angeles Center
05:09PM 34.1194 -115.2164 43° Northeast 178 205 9,500 60 Climbing Los Angeles Center
05:10PM 34.1561 -115.1778 41° Northeast 176 203 9,600  Climbing Los Angeles Center
05:11PM 34.1917 -115.1394 42° Northeast 174 200 9,600  Level Los Angeles Center
05:12PM 34.2339 -115.0906 44° Northeast 174 200 9,700  Climbing Los Angeles Center
05:13PM 34.2700 -115.0506 42° Northeast 175 201 9,600 -60 Descending Los Angeles Center
05:14PM 34.3069 -115.0094 43° Northeast 177 204 9,600  Level Los Angeles Center
05:15PM 34.3428 -114.9700 42° Northeast 177 204 9,700  Climbing Los Angeles Center
05:16PM 34.3778 -114.9308 43° Northeast 174 200 9,600 -60 Descending Los Angeles Center
05:17PM 34.4131 -114.8911 43° Northeast 173 199 9,600  Level Los Angeles Center
05:18PM 34.4475 -114.8536 42° Northeast 170 196 9,600 -60 Level Los Angeles Center
05:19PM 34.4900 -114.8064 42° Northeast 171 197 9,500 -300 Descending Los Angeles Center
05:20PM 34.5289 -114.7647 41° Northeast 178 205 9,000 -540 Descending Los Angeles Center
05:22PM 34.5683 -114.7197 43° Northeast 187 215 8,400 -540 Descending Los Angeles Center
05:23PM 34.6072 -114.6761 43° Northeast 191 220 7,900 -300 Descending Los Angeles Center
05:24PM 34.6544 -114.6286 40° Northeast 190 219 7,800 -120 Descending Los Angeles Center
05:26PM 34.7270 -114.5401 45° Northeast  Level FlightAware Approximate
05:33PM 34.9958 -114.2209 39° Northeast  Level FlightAware Approximate
05:34PM 35.0347 -114.1758 44° Northeast  Level FlightAware Approximate
05:35PM 35.0732 -114.1303 44° Northeast  Level FlightAware Approximate